sensor_id;sensor_type;location;lat;lon;timestamp;P1;durP1;ratioP1;P2;durP2;ratioP2
22705;SDS011;11520;51.198;4.468;2023-11-21T00:02:19;48.58;;;24.75;;
22705;SDS011;11520;51.198;4.468;2023-11-21T00:04:45;46.15;;;23.88;;
22705;SDS011;11520;51.198;4.468;2023-11-21T00:07:12;52.55;;;26.63;;
22705;SDS011;11520;51.198;4.468;2023-11-21T00:09:37;52.95;;;26.67;;
22705;SDS011;11520;51.198;4.468;2023-11-21T00:12:03;49.20;;;25.98;;
22705;SDS011;11520;51.198;4.468;2023-11-21T00:14:29;47.03;;;26.00;;
22705;SDS011;11520;51.198;4.468;2023-11-21T00:16:55;56.70;;;27.25;;
22705;SDS011;11520;51.198;4.468;2023-11-21T00:19:20;50.80;;;28.20;;
22705;SDS011;11520;51.198;4.468;2023-11-21T00:21:46;50.10;;;28.15;;
22705;SDS011;11520;51.198;4.468;2023-11-21T00:24:11;57.72;;;27.80;;
22705;SDS011;11520;51.198;4.468;2023-11-21T00:26:39;56.60;;;29.50;;
22705;SDS011;11520;51.198;4.468;2023-11-21T00:29:05;53.08;;;28.08;;
22705;SDS011;11520;51.198;4.468;2023-11-21T00:31:33;55.42;;;28.77;;
22705;SDS011;11520;51.198;4.468;2023-11-21T00:34:01;47.90;;;27.70;;
22705;SDS011;11520;51.198;4.468;2023-11-21T00:36:28;49.45;;;28.83;;
22705;SDS011;11520;51.198;4.468;2023-11-21T00:38:54;51.53;;;27.95;;
22705;SDS011;11520;51.198;4.468;2023-11-21T00:41:21;47.78;;;27.88;;
22705;SDS011;11520;51.198;4.468;2023-11-21T00:43:46;53.72;;;28.58;;
22705;SDS011;11520;51.198;4.468;2023-11-21T00:46:12;50.00;;;27.85;;
22705;SDS011;11520;51.198;4.468;2023-11-21T00:48:38;53.10;;;28.83;;
22705;SDS011;11520;51.198;4.468;2023-11-21T00:51:04;55.08;;;29.13;;
22705;SDS011;11520;51.198;4.468;2023-11-21T00:53:31;51.10;;;29.48;;
22705;SDS011;11520;51.198;4.468;2023-11-21T00:55:56;55.38;;;29.63;;
22705;SDS011;11520;51.198;4.468;2023-11-21T00:58:23;45.10;;;28.27;;
22705;SDS011;11520;51.198;4.468;2023-11-21T01:00:49;47.28;;;27.42;;
22705;SDS011;11520;51.198;4.468;2023-11-21T01:03:15;48.85;;;28.40;;
22705;SDS011;11520;51.198;4.468;2023-11-21T01:05:41;50.45;;;29.02;;
22705;SDS011;11520;51.198;4.468;2023-11-21T01:08:06;50.88;;;28.25;;
22705;SDS011;11520;51.198;4.468;2023-11-21T01:10:32;48.55;;;27.50;;
22705;SDS011;11520;51.198;4.468;2023-11-21T01:12:59;54.63;;;29.23;;
22705;SDS011;11520;51.198;4.468;2023-11-21T01:15:25;51.22;;;29.55;;
22705;SDS011;11520;51.198;4.468;2023-11-21T01:17:51;55.10;;;29.42;;
22705;SDS011;11520;51.198;4.468;2023-11-21T01:20:17;50.70;;;29.80;;
22705;SDS011;11520;51.198;4.468;2023-11-21T01:22:43;56.28;;;29.10;;
22705;SDS011;11520;51.198;4.468;2023-11-21T01:25:08;56.42;;;30.48;;
22705;SDS011;11520;51.198;4.468;2023-11-21T01:27:36;57.00;;;31.42;;
22705;SDS011;11520;51.198;4.468;2023-11-21T01:30:05;59.05;;;31.33;;
22705;SDS011;11520;51.198;4.468;2023-11-21T01:32:32;54.78;;;31.42;;
22705;SDS011;11520;51.198;4.468;2023-11-21T01:34:59;60.13;;;31.65;;
22705;SDS011;11520;51.198;4.468;2023-11-21T01:37:25;56.00;;;29.95;;
22705;SDS011;11520;51.198;4.468;2023-11-21T01:39:53;54.08;;;29.40;;
22705;SDS011;11520;51.198;4.468;2023-11-21T01:42:20;60.72;;;31.52;;
22705;SDS011;11520;51.198;4.468;2023-11-21T01:44:46;56.38;;;30.35;;
22705;SDS011;11520;51.198;4.468;2023-11-21T01:47:11;60.40;;;31.65;;
22705;SDS011;11520;51.198;4.468;2023-11-21T01:49:38;56.85;;;31.00;;
22705;SDS011;11520;51.198;4.468;2023-11-21T01:52:04;55.35;;;31.30;;
22705;SDS011;11520;51.198;4.468;2023-11-21T01:54:31;57.00;;;30.48;;
22705;SDS011;11520;51.198;4.468;2023-11-21T01:56:57;57.30;;;30.08;;
22705;SDS011;11520;51.198;4.468;2023-11-21T01:59:27;59.60;;;31.38;;
22705;SDS011;11520;51.198;4.468;2023-11-21T02:01:58;56.92;;;29.20;;
22705;SDS011;11520;51.198;4.468;2023-11-21T02:04:24;51.70;;;29.42;;
22705;SDS011;11520;51.198;4.468;2023-11-21T02:06:50;52.28;;;28.85;;
22705;SDS011;11520;51.198;4.468;2023-11-21T02:09:16;54.92;;;28.85;;
22705;SDS011;11520;51.198;4.468;2023-11-21T02:11:42;58.65;;;30.63;;
22705;SDS011;11520;51.198;4.468;2023-11-21T02:14:09;55.25;;;29.25;;
22705;SDS011;11520;51.198;4.468;2023-11-21T02:16:35;55.17;;;29.55;;
22705;SDS011;11520;51.198;4.468;2023-11-21T02:19:02;57.63;;;30.08;;
22705;SDS011;11520;51.198;4.468;2023-11-21T02:21:31;54.25;;;27.83;;
22705;SDS011;11520;51.198;4.468;2023-11-21T02:23:57;47.40;;;26.73;;
22705;SDS011;11520;51.198;4.468;2023-11-21T02:26:23;45.45;;;25.70;;
22705;SDS011;11520;51.198;4.468;2023-11-21T02:28:51;51.22;;;28.27;;
22705;SDS011;11520;51.198;4.468;2023-11-21T02:31:18;53.55;;;28.25;;
22705;SDS011;11520;51.198;4.468;2023-11-21T02:33:44;50.30;;;26.90;;
22705;SDS011;11520;51.198;4.468;2023-11-21T02:36:09;47.65;;;25.05;;
22705;SDS011;11520;51.198;4.468;2023-11-21T02:38:35;48.75;;;26.90;;
22705;SDS011;11520;51.198;4.468;2023-11-21T02:41:00;47.00;;;26.20;;
22705;SDS011;11520;51.198;4.468;2023-11-21T02:43:26;46.95;;;26.90;;
22705;SDS011;11520;51.198;4.468;2023-11-21T02:45:51;46.00;;;25.67;;
22705;SDS011;11520;51.198;4.468;2023-11-21T02:48:17;49.50;;;27.17;;
22705;SDS011;11520;51.198;4.468;2023-11-21T02:50:42;48.17;;;26.75;;
22705;SDS011;11520;51.198;4.468;2023-11-21T02:53:08;47.80;;;27.58;;
22705;SDS011;11520;51.198;4.468;2023-11-21T02:55:35;54.15;;;27.77;;
22705;SDS011;11520;51.198;4.468;2023-11-21T02:58:01;47.30;;;25.90;;
22705;SDS011;11520;51.198;4.468;2023-11-21T03:00:28;47.80;;;26.65;;
22705;SDS011;11520;51.198;4.468;2023-11-21T03:02:55;44.88;;;25.55;;
22705;SDS011;11520;51.198;4.468;2023-11-21T03:05:21;53.60;;;27.35;;
22705;SDS011;11520;51.198;4.468;2023-11-21T03:07:47;51.28;;;26.60;;
22705;SDS011;11520;51.198;4.468;2023-11-21T03:10:12;45.67;;;26.40;;
22705;SDS011;11520;51.198;4.468;2023-11-21T03:12:38;50.63;;;26.02;;
22705;SDS011;11520;51.198;4.468;2023-11-21T03:15:05;47.55;;;27.08;;
22705;SDS011;11520;51.198;4.468;2023-11-21T03:17:31;43.80;;;25.63;;
22705;SDS011;11520;51.198;4.468;2023-11-21T03:19:58;46.00;;;25.13;;
22705;SDS011;11520;51.198;4.468;2023-11-21T03:22:25;48.08;;;26.67;;
22705;SDS011;11520;51.198;4.468;2023-11-21T03:24:51;44.13;;;26.00;;
22705;SDS011;11520;51.198;4.468;2023-11-21T03:27:17;50.20;;;26.38;;
22705;SDS011;11520;51.198;4.468;2023-11-21T03:29:43;42.55;;;24.02;;
22705;SDS011;11520;51.198;4.468;2023-11-21T03:32:09;49.85;;;25.90;;
22705;SDS011;11520;51.198;4.468;2023-11-21T03:34:35;37.28;;;23.13;;
22705;SDS011;11520;51.198;4.468;2023-11-21T03:37:17;43.38;;;25.08;;
22705;SDS011;11520;51.198;4.468;2023-11-21T03:39:43;44.63;;;25.35;;
22705;SDS011;11520;51.198;4.468;2023-11-21T03:42:08;45.75;;;25.63;;
22705;SDS011;11520;51.198;4.468;2023-11-21T03:44:34;49.60;;;25.95;;
22705;SDS011;11520;51.198;4.468;2023-11-21T03:46:59;43.72;;;24.73;;
22705;SDS011;11520;51.198;4.468;2023-11-21T03:49:25;40.13;;;23.42;;
22705;SDS011;11520;51.198;4.468;2023-11-21T03:51:50;44.35;;;24.02;;
22705;SDS011;11520;51.198;4.468;2023-11-21T03:54:16;43.65;;;24.10;;
22705;SDS011;11520;51.198;4.468;2023-11-21T03:56:41;44.22;;;24.60;;
22705;SDS011;11520;51.198;4.468;2023-11-21T03:59:07;46.30;;;25.98;;
22705;SDS011;11520;51.198;4.468;2023-11-21T04:01:33;40.00;;;22.92;;
22705;SDS011;11520;51.198;4.468;2023-11-21T04:03:59;45.08;;;24.10;;
22705;SDS011;11520;51.198;4.468;2023-11-21T04:06:25;48.33;;;24.75;;
22705;SDS011;11520;51.198;4.468;2023-11-21T04:08:50;45.72;;;24.65;;
22705;SDS011;11520;51.198;4.468;2023-11-21T04:11:16;45.22;;;24.13;;
22705;SDS011;11520;51.198;4.468;2023-11-21T04:13:41;43.05;;;24.05;;
22705;SDS011;11520;51.198;4.468;2023-11-21T04:16:08;43.08;;;23.55;;
22705;SDS011;11520;51.198;4.468;2023-11-21T04:18:35;43.28;;;24.95;;
22705;SDS011;11520;51.198;4.468;2023-11-21T04:21:03;45.40;;;25.13;;
22705;SDS011;11520;51.198;4.468;2023-11-21T04:23:30;40.25;;;22.98;;
22705;SDS011;11520;51.198;4.468;2023-11-21T04:25:56;42.05;;;23.52;;
22705;SDS011;11520;51.198;4.468;2023-11-21T04:28:23;40.55;;;23.73;;
22705;SDS011;11520;51.198;4.468;2023-11-21T04:30:49;36.60;;;21.55;;
22705;SDS011;11520;51.198;4.468;2023-11-21T04:33:15;39.28;;;21.88;;
22705;SDS011;11520;51.198;4.468;2023-11-21T04:35:41;41.83;;;22.23;;
22705;SDS011;11520;51.198;4.468;2023-11-21T04:38:06;46.67;;;24.17;;
22705;SDS011;11520;51.198;4.468;2023-11-21T04:40:32;39.15;;;22.55;;
22705;SDS011;11520;51.198;4.468;2023-11-21T04:42:58;41.83;;;22.73;;
22705;SDS011;11520;51.198;4.468;2023-11-21T04:45:23;47.03;;;24.52;;
22705;SDS011;11520;51.198;4.468;2023-11-21T04:47:49;41.60;;;22.60;;
22705;SDS011;11520;51.198;4.468;2023-11-21T04:50:15;41.15;;;22.92;;
22705;SDS011;11520;51.198;4.468;2023-11-21T04:52:44;48.10;;;23.55;;
22705;SDS011;11520;51.198;4.468;2023-11-21T04:55:09;41.53;;;22.88;;
22705;SDS011;11520;51.198;4.468;2023-11-21T04:57:38;41.50;;;23.45;;
22705;SDS011;11520;51.198;4.468;2023-11-21T05:00:06;40.63;;;22.55;;
22705;SDS011;11520;51.198;4.468;2023-11-21T05:02:34;37.92;;;22.95;;
22705;SDS011;11520;51.198;4.468;2023-11-21T05:05:00;43.97;;;24.45;;
22705;SDS011;11520;51.198;4.468;2023-11-21T05:07:32;44.28;;;23.17;;
22705;SDS011;11520;51.198;4.468;2023-11-21T05:10:00;44.35;;;24.65;;
22705;SDS011;11520;51.198;4.468;2023-11-21T05:12:28;40.55;;;23.10;;
22705;SDS011;11520;51.198;4.468;2023-11-21T05:15:01;44.83;;;25.67;;
22705;SDS011;11520;51.198;4.468;2023-11-21T05:17:28;41.78;;;23.80;;
22705;SDS011;11520;51.198;4.468;2023-11-21T05:19:54;39.35;;;23.42;;
22705;SDS011;11520;51.198;4.468;2023-11-21T05:22:19;39.10;;;22.48;;
22705;SDS011;11520;51.198;4.468;2023-11-21T05:24:45;41.60;;;22.80;;
22705;SDS011;11520;51.198;4.468;2023-11-21T05:27:10;50.40;;;24.50;;
22705;SDS011;11520;51.198;4.468;2023-11-21T05:29:36;50.50;;;25.45;;
22705;SDS011;11520;51.198;4.468;2023-11-21T05:32:05;46.13;;;23.42;;
22705;SDS011;11520;51.198;4.468;2023-11-21T05:34:30;41.53;;;22.27;;
22705;SDS011;11520;51.198;4.468;2023-11-21T05:36:56;45.92;;;24.90;;
22705;SDS011;11520;51.198;4.468;2023-11-21T05:39:23;42.15;;;23.73;;
22705;SDS011;11520;51.198;4.468;2023-11-21T05:44:21;44.88;;;26.08;;
22705;SDS011;11520;51.198;4.468;2023-11-21T05:46:48;46.67;;;25.83;;
22705;SDS011;11520;51.198;4.468;2023-11-21T05:49:15;46.95;;;27.00;;
22705;SDS011;11520;51.198;4.468;2023-11-21T05:51:41;47.05;;;25.35;;
22705;SDS011;11520;51.198;4.468;2023-11-21T05:56:32;49.65;;;26.85;;
22705;SDS011;11520;51.198;4.468;2023-11-21T05:59:00;44.53;;;25.23;;
22705;SDS011;11520;51.198;4.468;2023-11-21T06:01:28;41.72;;;23.10;;
22705;SDS011;11520;51.198;4.468;2023-11-21T06:03:54;44.15;;;25.30;;
22705;SDS011;11520;51.198;4.468;2023-11-21T06:08:49;50.17;;;26.40;;
22705;SDS011;11520;51.198;4.468;2023-11-21T06:11:15;50.63;;;26.42;;
22705;SDS011;11520;51.198;4.468;2023-11-21T06:13:41;43.67;;;25.55;;
22705;SDS011;11520;51.198;4.468;2023-11-21T06:16:07;46.55;;;25.92;;
22705;SDS011;11520;51.198;4.468;2023-11-21T06:18:33;48.58;;;25.20;;
22705;SDS011;11520;51.198;4.468;2023-11-21T06:21:00;45.50;;;24.50;;
22705;SDS011;11520;51.198;4.468;2023-11-21T06:23:25;45.08;;;24.25;;
22705;SDS011;11520;51.198;4.468;2023-11-21T06:25:51;49.03;;;26.63;;
22705;SDS011;11520;51.198;4.468;2023-11-21T06:28:17;43.78;;;25.75;;
22705;SDS011;11520;51.198;4.468;2023-11-21T06:30:43;44.22;;;23.60;;
22705;SDS011;11520;51.198;4.468;2023-11-21T06:33:10;47.22;;;26.15;;
22705;SDS011;11520;51.198;4.468;2023-11-21T06:35:36;52.33;;;26.92;;
22705;SDS011;11520;51.198;4.468;2023-11-21T06:38:01;46.72;;;26.08;;
22705;SDS011;11520;51.198;4.468;2023-11-21T06:40:27;56.08;;;27.48;;
22705;SDS011;11520;51.198;4.468;2023-11-21T06:42:53;51.58;;;26.75;;
22705;SDS011;11520;51.198;4.468;2023-11-21T06:45:19;52.10;;;27.83;;
22705;SDS011;11520;51.198;4.468;2023-11-21T06:47:47;52.03;;;26.80;;
22705;SDS011;11520;51.198;4.468;2023-11-21T06:50:14;49.78;;;27.05;;
22705;SDS011;11520;51.198;4.468;2023-11-21T06:52:39;53.70;;;28.30;;
22705;SDS011;11520;51.198;4.468;2023-11-21T06:55:05;50.90;;;27.35;;
22705;SDS011;11520;51.198;4.468;2023-11-21T06:57:33;48.30;;;25.48;;
22705;SDS011;11520;51.198;4.468;2023-11-21T06:59:58;52.20;;;27.73;;
22705;SDS011;11520;51.198;4.468;2023-11-21T07:02:24;52.83;;;26.50;;
22705;SDS011;11520;51.198;4.468;2023-11-21T07:04:50;48.13;;;26.73;;
22705;SDS011;11520;51.198;4.468;2023-11-21T07:07:16;51.45;;;25.55;;
22705;SDS011;11520;51.198;4.468;2023-11-21T07:09:41;49.50;;;25.92;;
22705;SDS011;11520;51.198;4.468;2023-11-21T07:12:07;46.28;;;25.13;;
22705;SDS011;11520;51.198;4.468;2023-11-21T07:14:34;50.10;;;27.10;;
22705;SDS011;11520;51.198;4.468;2023-11-21T07:16:59;53.95;;;26.27;;
22705;SDS011;11520;51.198;4.468;2023-11-21T07:19:25;48.28;;;25.17;;
22705;SDS011;11520;51.198;4.468;2023-11-21T07:21:51;55.47;;;26.67;;
22705;SDS011;11520;51.198;4.468;2023-11-21T07:24:17;51.65;;;26.63;;
22705;SDS011;11520;51.198;4.468;2023-11-21T07:26:43;47.50;;;24.52;;
22705;SDS011;11520;51.198;4.468;2023-11-21T07:29:08;41.97;;;25.48;;
22705;SDS011;11520;51.198;4.468;2023-11-21T07:31:34;46.95;;;24.77;;
22705;SDS011;11520;51.198;4.468;2023-11-21T07:34:00;46.92;;;24.65;;
22705;SDS011;11520;51.198;4.468;2023-11-21T07:36:26;47.50;;;24.50;;
22705;SDS011;11520;51.198;4.468;2023-11-21T07:38:52;52.75;;;25.80;;
22705;SDS011;11520;51.198;4.468;2023-11-21T07:41:18;46.10;;;24.55;;
22705;SDS011;11520;51.198;4.468;2023-11-21T07:43:44;45.28;;;24.75;;
22705;SDS011;11520;51.198;4.468;2023-11-21T07:46:11;45.50;;;25.08;;
22705;SDS011;11520;51.198;4.468;2023-11-21T07:48:38;44.22;;;22.77;;
22705;SDS011;11520;51.198;4.468;2023-11-21T07:51:04;44.35;;;23.48;;
22705;SDS011;11520;51.198;4.468;2023-11-21T07:53:30;43.83;;;23.15;;
22705;SDS011;11520;51.198;4.468;2023-11-21T07:55:56;51.58;;;25.38;;
22705;SDS011;11520;51.198;4.468;2023-11-21T07:58:23;43.17;;;23.85;;
22705;SDS011;11520;51.198;4.468;2023-11-21T08:00:49;46.33;;;23.83;;
22705;SDS011;11520;51.198;4.468;2023-11-21T08:03:15;47.22;;;24.65;;
22705;SDS011;11520;51.198;4.468;2023-11-21T08:05:44;42.08;;;21.50;;
22705;SDS011;11520;51.198;4.468;2023-11-21T08:08:12;50.70;;;23.70;;
22705;SDS011;11520;51.198;4.468;2023-11-21T08:10:38;50.28;;;23.60;;
22705;SDS011;11520;51.198;4.468;2023-11-21T08:13:04;50.80;;;24.73;;
22705;SDS011;11520;51.198;4.468;2023-11-21T08:15:30;41.30;;;21.73;;
22705;SDS011;11520;51.198;4.468;2023-11-21T08:17:57;43.97;;;22.40;;
22705;SDS011;11520;51.198;4.468;2023-11-21T08:20:23;48.58;;;24.17;;
22705;SDS011;11520;51.198;4.468;2023-11-21T08:22:50;42.55;;;22.33;;
22705;SDS011;11520;51.198;4.468;2023-11-21T08:25:16;43.13;;;23.17;;
22705;SDS011;11520;51.198;4.468;2023-11-21T08:30:20;39.05;;;23.20;;
22705;SDS011;11520;51.198;4.468;2023-11-21T08:32:48;42.78;;;23.40;;
22705;SDS011;11520;51.198;4.468;2023-11-21T08:35:14;39.63;;;21.92;;
22705;SDS011;11520;51.198;4.468;2023-11-21T08:37:40;44.60;;;21.85;;
22705;SDS011;11520;51.198;4.468;2023-11-21T08:40:06;43.53;;;23.42;;
22705;SDS011;11520;51.198;4.468;2023-11-21T08:42:37;36.40;;;20.52;;
22705;SDS011;11520;51.198;4.468;2023-11-21T08:47:39;41.05;;;21.63;;
22705;SDS011;11520;51.198;4.468;2023-11-21T08:50:05;42.53;;;21.55;;
22705;SDS011;11520;51.198;4.468;2023-11-21T08:52:32;42.97;;;21.30;;
22705;SDS011;11520;51.198;4.468;2023-11-21T08:54:59;41.28;;;22.00;;
22705;SDS011;11520;51.198;4.468;2023-11-21T08:57:27;38.72;;;20.50;;
22705;SDS011;11520;51.198;4.468;2023-11-21T08:59:53;37.35;;;20.33;;
22705;SDS011;11520;51.198;4.468;2023-11-21T09:02:23;36.25;;;19.42;;
22705;SDS011;11520;51.198;4.468;2023-11-21T09:04:51;31.40;;;16.35;;
22705;SDS011;11520;51.198;4.468;2023-11-21T09:07:17;23.58;;;14.07;;
22705;SDS011;11520;51.198;4.468;2023-11-21T09:09:45;24.60;;;14.27;;
22705;SDS011;11520;51.198;4.468;2023-11-21T09:12:14;21.63;;;12.90;;
22705;SDS011;11520;51.198;4.468;2023-11-21T09:14:40;18.60;;;11.90;;
22705;SDS011;11520;51.198;4.468;2023-11-21T09:17:07;22.75;;;12.50;;
22705;SDS011;11520;51.198;4.468;2023-11-21T09:19:39;20.83;;;12.48;;
22705;SDS011;11520;51.198;4.468;2023-11-21T09:22:05;19.70;;;12.07;;
22705;SDS011;11520;51.198;4.468;2023-11-21T09:24:31;17.30;;;11.48;;
22705;SDS011;11520;51.198;4.468;2023-11-21T09:26:57;17.83;;;10.07;;
22705;SDS011;11520;51.198;4.468;2023-11-21T09:29:24;20.27;;;10.23;;
22705;SDS011;11520;51.198;4.468;2023-11-21T09:31:53;17.00;;;9.48;;
22705;SDS011;11520;51.198;4.468;2023-11-21T09:34:24;16.50;;;10.10;;
22705;SDS011;11520;51.198;4.468;2023-11-21T09:36:50;18.48;;;10.85;;
22705;SDS011;11520;51.198;4.468;2023-11-21T09:39:16;17.90;;;10.38;;
22705;SDS011;11520;51.198;4.468;2023-11-21T09:41:43;17.38;;;9.45;;
22705;SDS011;11520;51.198;4.468;2023-11-21T09:44:20;17.27;;;9.85;;
22705;SDS011;11520;51.198;4.468;2023-11-21T09:47:04;17.50;;;9.65;;
22705;SDS011;11520;51.198;4.468;2023-11-21T09:49:33;16.88;;;9.73;;
22705;SDS011;11520;51.198;4.468;2023-11-21T09:52:00;20.38;;;10.52;;
22705;SDS011;11520;51.198;4.468;2023-11-21T09:54:28;19.48;;;10.23;;
22705;SDS011;11520;51.198;4.468;2023-11-21T09:56:56;23.85;;;11.13;;
22705;SDS011;11520;51.198;4.468;2023-11-21T09:59:25;18.45;;;9.35;;
22705;SDS011;11520;51.198;4.468;2023-11-21T10:01:56;19.63;;;9.85;;
22705;SDS011;11520;51.198;4.468;2023-11-21T10:04:23;16.58;;;9.70;;
22705;SDS011;11520;51.198;4.468;2023-11-21T10:06:49;17.25;;;9.27;;
22705;SDS011;11520;51.198;4.468;2023-11-21T10:09:16;17.90;;;9.05;;
22705;SDS011;11520;51.198;4.468;2023-11-21T10:11:42;15.48;;;8.25;;
22705;SDS011;11520;51.198;4.468;2023-11-21T10:14:11;18.50;;;8.05;;
22705;SDS011;11520;51.198;4.468;2023-11-21T10:16:38;11.35;;;7.00;;
22705;SDS011;11520;51.198;4.468;2023-11-21T10:19:06;11.25;;;7.00;;
22705;SDS011;11520;51.198;4.468;2023-11-21T10:26:44;11.43;;;6.40;;
22705;SDS011;11520;51.198;4.468;2023-11-21T10:29:13;18.98;;;8.02;;
22705;SDS011;11520;51.198;4.468;2023-11-21T10:31:41;11.50;;;6.05;;
22705;SDS011;11520;51.198;4.468;2023-11-21T10:34:14;13.27;;;6.53;;
22705;SDS011;11520;51.198;4.468;2023-11-21T10:36:41;11.32;;;6.47;;
22705;SDS011;11520;51.198;4.468;2023-11-21T10:39:06;12.45;;;6.95;;
22705;SDS011;11520;51.198;4.468;2023-11-21T10:41:32;13.77;;;6.40;;
22705;SDS011;11520;51.198;4.468;2023-11-21T10:43:59;9.27;;;5.75;;
22705;SDS011;11520;51.198;4.468;2023-11-21T10:46:24;10.02;;;6.00;;
22705;SDS011;11520;51.198;4.468;2023-11-21T10:48:54;9.23;;;5.65;;
22705;SDS011;11520;51.198;4.468;2023-11-21T10:51:21;8.35;;;5.53;;
22705;SDS011;11520;51.198;4.468;2023-11-21T10:53:47;7.97;;;4.63;;
22705;SDS011;11520;51.198;4.468;2023-11-21T10:56:14;8.65;;;5.50;;
22705;SDS011;11520;51.198;4.468;2023-11-21T10:58:44;7.15;;;5.05;;
22705;SDS011;11520;51.198;4.468;2023-11-21T11:01:10;6.88;;;4.78;;
22705;SDS011;11520;51.198;4.468;2023-11-21T11:03:39;7.43;;;4.90;;
22705;SDS011;11520;51.198;4.468;2023-11-21T11:06:05;8.68;;;5.68;;
22705;SDS011;11520;51.198;4.468;2023-11-21T11:08:36;6.78;;;4.68;;
22705;SDS011;11520;51.198;4.468;2023-11-21T11:11:03;7.43;;;5.10;;
22705;SDS011;11520;51.198;4.468;2023-11-21T11:13:32;5.70;;;4.72;;
22705;SDS011;11520;51.198;4.468;2023-11-21T11:15:58;7.78;;;4.70;;
22705;SDS011;11520;51.198;4.468;2023-11-21T11:18:26;8.40;;;5.40;;
22705;SDS011;11520;51.198;4.468;2023-11-21T11:20:56;7.18;;;4.47;;
22705;SDS011;11520;51.198;4.468;2023-11-21T11:23:37;10.57;;;5.25;;
22705;SDS011;11520;51.198;4.468;2023-11-21T11:32:25;6.95;;;4.35;;
22705;SDS011;11520;51.198;4.468;2023-11-21T11:35:21;8.93;;;4.57;;
22705;SDS011;11520;51.198;4.468;2023-11-21T11:37:55;6.28;;;4.13;;
22705;SDS011;11520;51.198;4.468;2023-11-21T11:40:21;9.82;;;5.30;;
22705;SDS011;11520;51.198;4.468;2023-11-21T11:42:57;7.10;;;4.20;;
22705;SDS011;11520;51.198;4.468;2023-11-21T11:45:23;6.75;;;4.30;;
22705;SDS011;11520;51.198;4.468;2023-11-21T11:47:59;7.13;;;4.40;;
22705;SDS011;11520;51.198;4.468;2023-11-21T11:50:26;6.38;;;4.60;;
22705;SDS011;11520;51.198;4.468;2023-11-21T11:52:53;11.85;;;6.47;;
22705;SDS011;11520;51.198;4.468;2023-11-21T11:55:23;9.93;;;5.43;;
22705;SDS011;11520;51.198;4.468;2023-11-21T12:00:21;7.97;;;6.70;;
22705;SDS011;11520;51.198;4.468;2023-11-21T12:02:58;8.95;;;7.40;;
22705;SDS011;11520;51.198;4.468;2023-11-21T12:05:30;12.23;;;6.50;;
22705;SDS011;11520;51.198;4.468;2023-11-21T12:07:59;9.10;;;5.70;;
22705;SDS011;11520;51.198;4.468;2023-11-21T12:10:27;9.38;;;5.00;;
22705;SDS011;11520;51.198;4.468;2023-11-21T12:12:56;9.05;;;5.40;;
22705;SDS011;11520;51.198;4.468;2023-11-21T12:15:24;6.32;;;4.60;;
22705;SDS011;11520;51.198;4.468;2023-11-21T12:17:59;7.45;;;3.92;;
22705;SDS011;11520;51.198;4.468;2023-11-21T12:20:25;9.55;;;4.22;;
22705;SDS011;11520;51.198;4.468;2023-11-21T12:23:00;6.40;;;3.60;;
22705;SDS011;11520;51.198;4.468;2023-11-21T12:25:29;9.30;;;4.28;;
22705;SDS011;11520;51.198;4.468;2023-11-21T12:27:59;9.45;;;4.53;;
22705;SDS011;11520;51.198;4.468;2023-11-21T12:30:26;6.20;;;3.35;;
22705;SDS011;11520;51.198;4.468;2023-11-21T12:35:25;5.50;;;3.35;;
22705;SDS011;11520;51.198;4.468;2023-11-21T12:37:52;7.97;;;3.70;;
22705;SDS011;11520;51.198;4.468;2023-11-21T12:40:19;6.65;;;3.45;;
22705;SDS011;11520;51.198;4.468;2023-11-21T12:42:48;3.50;;;3.05;;
22705;SDS011;11520;51.198;4.468;2023-11-21T12:48:01;5.65;;;3.45;;
22705;SDS011;11520;51.198;4.468;2023-11-21T12:50:32;5.68;;;3.40;;
22705;SDS011;11520;51.198;4.468;2023-11-21T12:53:04;5.68;;;3.40;;
22705;SDS011;11520;51.198;4.468;2023-11-21T12:55:33;3.65;;;2.92;;
22705;SDS011;11520;51.198;4.468;2023-11-21T12:58:03;4.70;;;3.10;;
22705;SDS011;11520;51.198;4.468;2023-11-21T13:00:37;7.32;;;3.28;;
22705;SDS011;11520;51.198;4.468;2023-11-21T13:03:11;7.28;;;2.58;;
22705;SDS011;11520;51.198;4.468;2023-11-21T13:05:40;5.80;;;2.75;;
22705;SDS011;11520;51.198;4.468;2023-11-21T13:08:10;4.95;;;2.80;;
22705;SDS011;11520;51.198;4.468;2023-11-21T13:10:41;4.03;;;3.10;;
22705;SDS011;11520;51.198;4.468;2023-11-21T13:13:12;4.15;;;3.00;;
22705;SDS011;11520;51.198;4.468;2023-11-21T13:18:20;4.03;;;2.88;;
22705;SDS011;11520;51.198;4.468;2023-11-21T13:20:46;4.45;;;2.83;;
22705;SDS011;11520;51.198;4.468;2023-11-21T13:23:12;38.72;;;7.65;;
22705;SDS011;11520;51.198;4.468;2023-11-21T13:25:38;91.45;;;12.57;;
22705;SDS011;11520;51.198;4.468;2023-11-21T13:28:06;145.30;;;19.55;;
22705;SDS011;11520;51.198;4.468;2023-11-21T13:30:33;997.20;;;128.30;;
22705;SDS011;11520;51.198;4.468;2023-11-21T13:32:59;11.18;;;4.55;;
22705;SDS011;11520;51.198;4.468;2023-11-21T13:35:32;7.32;;;3.15;;
22705;SDS011;11520;51.198;4.468;2023-11-21T13:38:09;5.18;;;3.08;;
22705;SDS011;11520;51.198;4.468;2023-11-21T13:40:37;4.07;;;3.17;;
22705;SDS011;11520;51.198;4.468;2023-11-21T13:43:14;3.25;;;2.90;;
22705;SDS011;11520;51.198;4.468;2023-11-21T13:45:41;5.05;;;3.13;;
22705;SDS011;11520;51.198;4.468;2023-11-21T13:48:08;5.57;;;3.35;;
22705;SDS011;11520;51.198;4.468;2023-11-21T13:50:45;5.30;;;3.05;;
22705;SDS011;11520;51.198;4.468;2023-11-21T13:53:20;3.97;;;2.95;;
22705;SDS011;11520;51.198;4.468;2023-11-21T13:55:49;7.00;;;3.28;;
22705;SDS011;11520;51.198;4.468;2023-11-21T13:58:16;6.18;;;3.40;;
22705;SDS011;11520;51.198;4.468;2023-11-21T14:00:49;6.50;;;4.20;;
22705;SDS011;11520;51.198;4.468;2023-11-21T14:03:21;5.45;;;3.97;;
22705;SDS011;11520;51.198;4.468;2023-11-21T14:05:57;7.50;;;4.22;;
22705;SDS011;11520;51.198;4.468;2023-11-21T14:08:25;5.35;;;4.18;;
22705;SDS011;11520;51.198;4.468;2023-11-21T14:10:57;5.95;;;3.90;;
22705;SDS011;11520;51.198;4.468;2023-11-21T14:13:24;10.38;;;4.50;;
22705;SDS011;11520;51.198;4.468;2023-11-21T14:15:52;12.32;;;4.30;;
22705;SDS011;11520;51.198;4.468;2023-11-21T14:18:25;8.32;;;3.90;;
22705;SDS011;11520;51.198;4.468;2023-11-21T14:21:15;8.02;;;4.50;;
22705;SDS011;11520;51.198;4.468;2023-11-21T14:23:41;22.23;;;6.20;;
22705;SDS011;11520;51.198;4.468;2023-11-21T14:28:39;6.38;;;4.65;;
22705;SDS011;11520;51.198;4.468;2023-11-21T14:31:05;8.15;;;4.82;;
22705;SDS011;11520;51.198;4.468;2023-11-21T14:33:30;8.82;;;4.90;;
22705;SDS011;11520;51.198;4.468;2023-11-21T14:35:56;11.90;;;5.75;;
22705;SDS011;11520;51.198;4.468;2023-11-21T14:38:22;8.45;;;4.68;;
22705;SDS011;11520;51.198;4.468;2023-11-21T14:40:48;21.92;;;6.72;;
22705;SDS011;11520;51.198;4.468;2023-11-21T14:43:14;55.65;;;9.82;;
22705;SDS011;11520;51.198;4.468;2023-11-21T14:45:40;8.10;;;4.57;;
22705;SDS011;11520;51.198;4.468;2023-11-21T14:48:06;14.57;;;5.75;;
22705;SDS011;11520;51.198;4.468;2023-11-21T14:50:40;18.27;;;5.88;;
22705;SDS011;11520;51.198;4.468;2023-11-21T14:53:07;10.60;;;4.97;;
22705;SDS011;11520;51.198;4.468;2023-11-21T14:55:38;9.20;;;4.25;;
22705;SDS011;11520;51.198;4.468;2023-11-21T14:58:19;5.65;;;4.30;;
22705;SDS011;11520;51.198;4.468;2023-11-21T15:00:54;6.13;;;4.38;;
22705;SDS011;11520;51.198;4.468;2023-11-21T15:03:28;7.75;;;4.80;;
22705;SDS011;11520;51.198;4.468;2023-11-21T15:05:57;10.25;;;4.90;;
22705;SDS011;11520;51.198;4.468;2023-11-21T15:08:43;6.43;;;4.30;;